Time;durP1;ratioP1;P1;durP2;ratioP2;P2;SDS_P1;SDS_P2;PMS_P1;PMS_P2;Temp;Humidity;BMP_temperature;BMP_pressure;BME280_temperature;BME280_humidity;BME280_pressure;Samples;Min_cycle;Max_cycle;Signal;HPM_P1;HPM_P2
2023/12/08 00:00:20;;;;;;;21.65;12.35;;;3.40;99.90;;;;;;5047745;28;20560;-71
2023/12/08 00:02:47;;;;;;;21.75;12.60;;;3.40;99.90;;;;;;5047803;28;20533;-71
2023/12/08 00:05:14;;;;;;;21.88;12.90;;;3.40;99.90;;;;;;5047503;28;20715;-71
2023/12/08 00:07:40;;;;;;;22.58;12.77;;;3.40;99.90;;;;;;5048905;28;20075;-72
2023/12/08 00:10:06;;;;;;;21.08;12.63;;;3.40;99.90;;;;;;5048243;28;20025;-71
2023/12/08 00:12:31;;;;;;;19.75;12.25;;;3.40;99.90;;;;;;5047568;28;20033;-72
2023/12/08 00:14:57;;;;;;;19.23;12.68;;;3.40;99.90;;;;;;5048294;28;20020;-72
2023/12/08 00:17:23;;;;;;;18.52;11.77;;;3.40;99.90;;;;;;5048147;28;20158;-72
2023/12/08 00:19:49;;;;;;;19.90;12.50;;;3.40;99.90;;;;;;5047385;28;20028;-72
2023/12/08 00:22:14;;;;;;;19.15;11.88;;;3.40;99.90;;;;;;5047485;28;20686;-72
2023/12/08 00:24:40;;;;;;;19.15;12.23;;;3.40;99.90;;;;;;5047290;28;20020;-72
2023/12/08 00:27:07;;;;;;;21.38;12.50;;;3.40;99.90;;;;;;5047136;28;20025;-72
2023/12/08 00:29:32;;;;;;;17.17;10.45;;;3.40;99.90;;;;;;5047310;28;20032;-72
2023/12/08 00:31:58;;;;;;;20.10;12.65;;;3.40;99.90;;;;;;5046928;28;20371;-72
2023/12/08 00:34:23;;;;;;;22.58;12.18;;;3.40;99.90;;;;;;5047474;28;20033;-72
2023/12/08 00:36:49;;;;;;;17.48;10.73;;;3.50;99.90;;;;;;5046698;28;20787;-71
2023/12/08 00:39:15;;;;;;;16.98;10.35;;;3.50;99.90;;;;;;5037558;28;20590;-72
2023/12/08 00:41:40;;;;;;;18.17;11.30;;;3.50;99.90;;;;;;5057828;28;20615;-72
2023/12/08 00:44:08;;;;;;;20.20;11.77;;;3.50;99.90;;;;;;5066856;28;20032;-72
2023/12/08 00:46:34;;;;;;;16.65;10.02;;;3.50;99.90;;;;;;5066529;28;20027;-72
2023/12/08 00:48:59;;;;;;;18.02;11.18;;;3.50;99.90;;;;;;5066718;28;20016;-71
2023/12/08 00:51:25;;;;;;;18.15;11.20;;;3.50;99.90;;;;;;5066689;28;20048;-72
2023/12/08 00:53:51;;;;;;;15.30;9.35;;;3.50;99.90;;;;;;5066693;28;20009;-72
2023/12/08 00:56:17;;;;;;;15.52;10.00;;;3.50;99.90;;;;;;5066513;28;20511;-72
2023/12/08 00:58:42;;;;;;;15.50;10.25;;;3.50;99.90;;;;;;5066789;28;20079;-72
2023/12/08 01:01:09;;;;;;;15.85;10.38;;;3.50;99.90;;;;;;5066517;28;20025;-72
2023/12/08 01:03:35;;;;;;;15.82;9.80;;;3.50;99.90;;;;;;5067020;28;20059;-72
2023/12/08 01:06:01;;;;;;;16.02;9.93;;;3.60;99.90;;;;;;5051855;28;20036;-72
2023/12/08 01:08:26;;;;;;;17.00;10.98;;;3.60;99.90;;;;;;5066617;28;20031;-72
2023/12/08 01:10:52;;;;;;;16.60;9.98;;;3.60;99.90;;;;;;5066392;28;20032;-72
2023/12/08 01:13:19;;;;;;;16.88;10.27;;;3.50;99.90;;;;;;5067042;28;20020;-72
2023/12/08 01:15:45;;;;;;;15.68;10.40;;;3.60;99.90;;;;;;5074042;28;20028;-72
2023/12/08 01:18:11;;;;;;;17.67;10.68;;;3.60;99.90;;;;;;5066770;28;20666;-72
2023/12/08 01:20:36;;;;;;;14.18;9.52;;;3.60;99.90;;;;;;5066208;28;20497;-72
2023/12/08 01:23:02;;;;;;;17.33;10.93;;;3.60;99.90;;;;;;5066723;28;20028;-72
2023/12/08 01:25:27;;;;;;;13.95;9.35;;;3.60;99.90;;;;;;5066365;28;20032;-72
2023/12/08 01:27:54;;;;;;;14.30;10.05;;;3.60;99.90;;;;;;5066314;28;20024;-72
2023/12/08 01:30:20;;;;;;;16.58;9.93;;;3.60;99.90;;;;;;5066513;28;20482;-72
2023/12/08 01:32:46;;;;;;;14.30;9.10;;;3.60;99.90;;;;;;5066241;28;20070;-72
2023/12/08 01:35:12;;;;;;;15.32;9.90;;;3.60;99.90;;;;;;5066307;28;20356;-72
2023/12/08 01:37:38;;;;;;;17.92;10.23;;;3.60;99.90;;;;;;5066344;28;20075;-71
2023/12/08 01:40:04;;;;;;;16.65;10.38;;;3.60;99.90;;;;;;5052293;28;20372;-72
2023/12/08 01:42:30;;;;;;;15.05;9.57;;;3.60;99.90;;;;;;5077675;28;20036;-72
2023/12/08 01:44:55;;;;;;;15.10;9.65;;;3.60;99.90;;;;;;5080416;28;20401;-72
2023/12/08 01:47:21;;;;;;;13.70;9.18;;;3.70;99.90;;;;;;5066077;28;20013;-72
2023/12/08 01:49:47;;;;;;;14.93;9.52;;;3.70;99.90;;;;;;5074875;28;20442;-71
2023/12/08 01:52:23;;;;;;;16.58;10.27;;;3.70;99.90;;;;;;5071479;28;20052;-72
2023/12/08 01:54:52;;;;;;;17.08;9.88;;;3.70;99.90;;;;;;5074272;28;20032;-72
2023/12/08 01:57:19;;;;;;;17.88;10.82;;;3.70;99.90;;;;;;5072066;28;20535;-72
2023/12/08 01:59:46;;;;;;;15.73;9.68;;;3.70;99.90;;;;;;5079497;28;20592;-72
2023/12/08 02:02:12;;;;;;;14.93;10.13;;;3.70;99.90;;;;;;5078666;28;20496;-72
2023/12/08 02:04:42;;;;;;;16.45;10.00;;;3.70;99.90;;;;;;5071844;28;20031;-72
2023/12/08 02:07:09;;;;;;;14.90;9.68;;;3.70;99.90;;;;;;5074379;28;20557;-72
2023/12/08 02:09:35;;;;;;;14.45;9.20;;;3.70;99.90;;;;;;5079954;28;20067;-72
2023/12/08 02:12:00;;;;;;;15.60;10.32;;;3.70;99.90;;;;;;5075581;28;20055;-72
2023/12/08 02:14:26;;;;;;;16.58;10.18;;;3.70;99.90;;;;;;5072037;28;20029;-72
2023/12/08 02:16:57;;;;;;;16.40;10.65;;;3.70;99.90;;;;;;5078028;28;21019;-72
2023/12/08 02:19:23;;;;;;;16.15;10.82;;;3.70;99.90;;;;;;5080473;28;20020;-72
2023/12/08 02:21:49;;;;;;;15.77;10.40;;;3.70;99.90;;;;;;5074750;28;20034;-72
2023/12/08 02:24:19;;;;;;;18.00;10.48;;;3.70;99.90;;;;;;5077689;28;20131;-72
2023/12/08 02:26:46;;;;;;;17.88;10.77;;;3.70;99.90;;;;;;5083591;28;20397;-72
2023/12/08 02:29:12;;;;;;;12.60;9.20;;;3.70;99.90;;;;;;5080893;28;20024;-72
2023/12/08 02:31:54;;;;;;;15.65;9.88;;;3.70;99.90;;;;;;5081782;28;20531;-72
2023/12/08 02:34:21;;;;;;;17.13;11.15;;;3.70;99.90;;;;;;5080854;28;20077;-72
2023/12/08 02:36:49;;;;;;;17.67;11.18;;;3.70;99.90;;;;;;5056943;28;20016;-72
2023/12/08 02:39:16;;;;;;;18.60;11.18;;;3.70;99.90;;;;;;5083871;28;20020;-72
2023/12/08 02:41:42;;;;;;;14.07;9.52;;;3.70;99.90;;;;;;5074658;28;20059;-72
2023/12/08 02:44:08;;;;;;;18.20;11.30;;;3.70;99.90;;;;;;5081618;28;20440;-72
2023/12/08 02:46:34;;;;;;;14.73;9.55;;;3.60;99.90;;;;;;5072626;28;20017;-71
2023/12/08 02:48:59;;;;;;;16.85;10.95;;;3.60;99.90;;;;;;5083493;28;20020;-72
2023/12/08 02:51:25;;;;;;;19.55;11.60;;;3.60;99.90;;;;;;5077148;28;20024;-71
2023/12/08 02:53:52;;;;;;;18.13;11.07;;;3.60;99.90;;;;;;5074976;28;20016;-71
2023/12/08 02:56:18;;;;;;;14.40;8.68;;;3.60;99.90;;;;;;5083102;28;20052;-71
2023/12/08 02:58:44;;;;;;;17.13;10.38;;;3.60;99.90;;;;;;5081623;28;20120;-71
2023/12/08 03:01:09;;;;;;;17.80;10.80;;;3.60;99.90;;;;;;5074694;28;20020;-71
2023/12/08 03:03:35;;;;;;;18.42;11.48;;;3.60;99.90;;;;;;5078723;28;20024;-71
2023/12/08 03:06:01;;;;;;;16.67;10.40;;;3.50;99.90;;;;;;5083281;28;20020;-71
2023/12/08 03:08:26;;;;;;;16.80;10.77;;;3.60;99.90;;;;;;5077384;28;20020;-71
2023/12/08 03:10:52;;;;;;;17.42;11.05;;;3.50;99.90;;;;;;5074657;28;20024;-71
2023/12/08 03:13:18;;;;;;;17.48;10.90;;;3.50;99.90;;;;;;5082771;28;20413;-71
2023/12/08 03:15:43;;;;;;;17.02;10.13;;;3.50;99.90;;;;;;5081129;28;20035;-71
2023/12/08 03:18:09;;;;;;;17.70;11.80;;;3.50;99.90;;;;;;5070253;28;20020;-71
2023/12/08 03:20:34;;;;;;;18.08;11.63;;;3.50;99.90;;;;;;5078965;28;20385;-71
2023/12/08 03:23:00;;;;;;;17.30;10.85;;;3.50;99.90;;;;;;5074207;28;20016;-70
2023/12/08 03:25:26;;;;;;;19.75;12.20;;;3.50;99.90;;;;;;5080566;28;20120;-71
2023/12/08 03:27:51;;;;;;;19.02;11.07;;;3.50;99.90;;;;;;5082549;28;20019;-71
2023/12/08 03:30:17;;;;;;;17.05;10.82;;;3.40;99.90;;;;;;5074920;28;20024;-71
2023/12/08 03:32:43;;;;;;;20.45;11.50;;;3.40;99.90;;;;;;5075919;28;20075;-70
2023/12/08 03:35:08;;;;;;;17.73;11.00;;;3.40;99.90;;;;;;5072404;28;20028;-71
2023/12/08 03:37:34;;;;;;;22.17;12.75;;;3.40;99.90;;;;;;5077982;28;20375;-71
2023/12/08 03:40:00;;;;;;;18.13;10.85;;;3.40;99.90;;;;;;5056302;28;20538;-71
2023/12/08 03:42:25;;;;;;;23.77;12.98;;;3.40;99.90;;;;;;5067934;28;20064;-71
2023/12/08 03:44:51;;;;;;;23.73;12.57;;;3.40;99.90;;;;;;5068216;28;20028;-71
2023/12/08 03:47:18;;;;;;;21.88;12.15;;;3.40;99.90;;;;;;5067882;28;20033;-70
2023/12/08 03:49:44;;;;;;;21.60;10.98;;;3.40;99.90;;;;;;5067887;28;20496;-71
2023/12/08 03:52:10;;;;;;;16.33;10.40;;;3.40;99.90;;;;;;5067840;28;20025;-71
2023/12/08 03:54:35;;;;;;;23.33;12.70;;;3.30;99.90;;;;;;5067967;28;20241;-72
2023/12/08 03:57:01;;;;;;;21.73;12.35;;;3.30;99.90;;;;;;5067615;28;20512;-71
2023/12/08 03:59:26;;;;;;;23.80;13.60;;;3.40;99.90;;;;;;5067893;28;20051;-71
2023/12/08 04:01:53;;;;;;;20.05;11.90;;;3.40;99.90;;;;;;5067537;28;20028;-71
2023/12/08 04:04:19;;;;;;;24.75;14.75;;;3.30;99.90;;;;;;5067567;28;20074;-71
2023/12/08 04:06:44;;;;;;;23.60;13.88;;;3.30;99.90;;;;;;5067525;28;20017;-71
2023/12/08 04:09:11;;;;;;;24.58;14.10;;;3.30;99.90;;;;;;5067791;28;20020;-71
2023/12/08 04:11:36;;;;;;;26.05;14.93;;;3.30;99.90;;;;;;5067332;28;20029;-71
2023/12/08 04:14:02;;;;;;;26.15;16.42;;;3.30;99.90;;;;;;5067830;28;20043;-71
2023/12/08 04:16:28;;;;;;;24.83;14.55;;;3.30;99.90;;;;;;5067373;28;20445;-71
2023/12/08 04:18:53;;;;;;;23.05;13.82;;;3.20;99.90;;;;;;5067173;28;20497;-71
2023/12/08 04:21:19;;;;;;;23.92;13.90;;;3.30;99.90;;;;;;5067125;28;20035;-71
2023/12/08 04:23:45;;;;;;;25.17;14.18;;;3.20;99.90;;;;;;5067337;28;20070;-71
2023/12/08 04:26:11;;;;;;;22.02;13.23;;;3.30;99.90;;;;;;5067456;28;20458;-71
2023/12/08 04:28:37;;;;;;;22.23;12.73;;;3.20;99.90;;;;;;5067226;28;20032;-72
2023/12/08 04:31:03;;;;;;;24.70;13.73;;;3.20;99.90;;;;;;5067173;28;20162;-71
2023/12/08 04:33:28;;;;;;;20.92;13.32;;;3.20;99.90;;;;;;5067192;28;20338;-71
2023/12/08 04:35:54;;;;;;;23.83;12.98;;;3.30;99.90;;;;;;5067260;28;20020;-71
2023/12/08 04:38:20;;;;;;;23.63;13.68;;;3.20;99.90;;;;;;5064584;28;20028;-71
2023/12/08 04:40:45;;;;;;;25.35;13.98;;;3.20;99.90;;;;;;5061409;28;20132;-71
2023/12/08 04:43:11;;;;;;;26.55;14.10;;;3.20;99.90;;;;;;5072637;28;20039;-71
2023/12/08 04:45:37;;;;;;;23.67;13.52;;;3.20;99.90;;;;;;5083251;28;20493;-71
2023/12/08 04:48:03;;;;;;;23.60;12.90;;;3.20;99.90;;;;;;5078490;28;20594;-71
2023/12/08 04:50:28;;;;;;;28.95;15.07;;;3.30;99.90;;;;;;5081071;28;20039;-71
2023/12/08 04:52:54;;;;;;;22.52;12.35;;;3.30;99.90;;;;;;5072759;28;20041;-71
2023/12/08 04:55:19;;;;;;;25.65;14.43;;;3.20;99.90;;;;;;5074796;28;20163;-71
2023/12/08 04:57:45;;;;;;;22.88;13.35;;;3.30;99.90;;;;;;5080658;28;20024;-71
2023/12/08 05:00:11;;;;;;;23.65;13.70;;;3.30;99.90;;;;;;5077142;28;20035;-71
2023/12/08 05:02:37;;;;;;;25.80;14.32;;;3.30;99.90;;;;;;5054273;28;20020;-71
2023/12/08 05:05:03;;;;;;;21.95;12.70;;;3.30;99.90;;;;;;5078722;28;20545;-71
2023/12/08 05:07:29;;;;;;;30.52;14.27;;;3.30;99.90;;;;;;5080836;28;20752;-71
2023/12/08 05:09:55;;;;;;;28.98;14.20;;;3.30;99.90;;;;;;5066611;28;20056;-71
2023/12/08 05:12:20;;;;;;;26.00;14.35;;;3.30;99.90;;;;;;5066672;28;20167;-71
2023/12/08 05:14:46;;;;;;;23.70;14.55;;;3.30;99.90;;;;;;5080795;28;20036;-71
2023/12/08 05:17:11;;;;;;;26.42;13.85;;;3.30;99.90;;;;;;5076758;28;20028;-71
2023/12/08 05:19:37;;;;;;;20.20;12.48;;;3.40;99.90;;;;;;5072241;28;20532;-71
2023/12/08 05:22:04;;;;;;;24.17;13.55;;;3.40;99.90;;;;;;5078198;28;20028;-71
2023/12/08 05:24:30;;;;;;;27.73;14.73;;;3.40;99.90;;;;;;5080930;28;20031;-71
2023/12/08 05:26:55;;;;;;;27.27;15.57;;;3.40;99.90;;;;;;5072806;28;20016;-71
2023/12/08 05:29:21;;;;;;;23.02;13.73;;;3.40;99.90;;;;;;5074498;28;20158;-72
2023/12/08 05:31:47;;;;;;;29.65;15.82;;;3.40;99.90;;;;;;5080072;28;20504;-71
2023/12/08 05:34:12;;;;;;;23.02;13.20;;;3.40;99.90;;;;;;5077001;28;20020;-71
2023/12/08 05:36:38;;;;;;;27.60;16.45;;;3.40;99.90;;;;;;5072208;28;20489;-71
2023/12/08 05:39:05;;;;;;;29.10;15.65;;;3.40;99.90;;;;;;5080819;28;20020;-71
2023/12/08 05:41:30;;;;;;;29.27;15.65;;;3.40;99.90;;;;;;5072008;28;20068;-71
2023/12/08 05:43:56;;;;;;;28.98;16.52;;;3.40;99.90;;;;;;5079786;28;20055;-71
2023/12/08 05:46:22;;;;;;;29.95;16.33;;;3.40;99.90;;;;;;5070018;28;20095;-71
2023/12/08 05:48:47;;;;;;;31.45;16.17;;;3.40;99.90;;;;;;5066033;28;20016;-71
2023/12/08 05:51:13;;;;;;;28.25;16.13;;;3.40;99.90;;;;;;5072784;28;20028;-71
2023/12/08 05:53:39;;;;;;;27.02;15.88;;;3.30;99.90;;;;;;5073457;28;20126;-70
2023/12/08 05:56:05;;;;;;;27.83;16.55;;;3.30;99.90;;;;;;5082279;28;20024;-71
2023/12/08 05:58:30;;;;;;;30.67;16.10;;;3.30;99.90;;;;;;5080513;28;20132;-71
2023/12/08 06:00:56;;;;;;;32.83;17.42;;;3.30;99.90;;;;;;5076124;28;20370;-72
2023/12/08 06:03:22;;;;;;;32.83;18.73;;;3.30;99.90;;;;;;5081632;28;20411;-72
2023/12/08 06:05:48;;;;;;;35.25;19.30;;;3.30;99.90;;;;;;5084519;28;20074;-71
2023/12/08 06:08:14;;;;;;;33.72;16.40;;;3.30;99.90;;;;;;5069869;28;20016;-71
2023/12/08 06:10:40;;;;;;;35.67;16.75;;;3.30;99.90;;;;;;5082697;28;20031;-71
2023/12/08 06:13:05;;;;;;;33.50;17.88;;;3.30;99.90;;;;;;5076014;28;20190;-71
2023/12/08 06:15:31;;;;;;;32.60;17.42;;;3.30;99.90;;;;;;5079871;28;20063;-71
2023/12/08 06:17:57;;;;;;;34.33;17.30;;;3.30;99.90;;;;;;5083696;28;20431;-72
2023/12/08 06:20:22;;;;;;;33.10;17.10;;;3.30;99.90;;;;;;5078223;28;20107;-71
2023/12/08 06:22:48;;;;;;;34.67;18.85;;;3.30;99.90;;;;;;5075672;28;20040;-71
2023/12/08 06:25:13;;;;;;;36.50;19.00;;;3.30;99.90;;;;;;5083964;28;20023;-71
2023/12/08 06:27:39;;;;;;;34.00;17.80;;;3.30;99.90;;;;;;5082025;28;20477;-71
2023/12/08 06:30:07;;;;;;;37.90;17.77;;;3.30;99.90;;;;;;5057821;28;20027;-71
2023/12/08 06:32:33;;;;;;;35.80;18.65;;;3.30;99.90;;;;;;5078748;28;20117;-72
2023/12/08 06:34:59;;;;;;;32.80;17.40;;;3.30;99.90;;;;;;5083954;28;20189;-72
2023/12/08 06:37:24;;;;;;;37.60;19.42;;;3.30;99.90;;;;;;5077753;28;20032;-72
2023/12/08 06:39:50;;;;;;;37.67;18.50;;;3.30;99.90;;;;;;5055964;28;20028;-72
2023/12/08 06:42:16;;;;;;;35.40;18.83;;;3.40;99.90;;;;;;5082547;28;20413;-72
2023/12/08 06:44:41;;;;;;;32.67;18.67;;;3.40;99.90;;;;;;5082108;28;20111;-72
2023/12/08 06:47:08;;;;;;;34.75;18.02;;;3.40;99.90;;;;;;5071120;28;20031;-72
2023/12/08 06:49:33;;;;;;;35.25;19.35;;;3.40;99.90;;;;;;5084453;28;20036;-72
2023/12/08 06:51:59;;;;;;;37.20;18.52;;;3.40;99.90;;;;;;5081799;28;20439;-73
2023/12/08 06:54:25;;;;;;;39.03;19.10;;;3.40;99.90;;;;;;5075975;28;20587;-72
2023/12/08 06:56:50;;;;;;;33.28;16.85;;;3.40;99.90;;;;;;5078458;28;20075;-73
2023/12/08 06:59:17;;;;;;;37.10;19.58;;;3.50;99.90;;;;;;5053902;28;20036;-72
2023/12/08 07:01:42;;;;;;;41.03;20.10;;;3.40;99.90;;;;;;5080005;28;20028;-73
2023/12/08 07:04:08;;;;;;;38.55;19.98;;;3.50;99.90;;;;;;5083081;28;20016;-72
2023/12/08 07:06:34;;;;;;;38.75;20.35;;;3.50;99.90;;;;;;5068501;28;20059;-72
2023/12/08 07:09:00;;;;;;;39.80;20.48;;;3.50;99.90;;;;;;5068921;28;20024;-71
2023/12/08 07:11:25;;;;;;;39.33;19.30;;;3.50;99.90;;;;;;5082973;28;20410;-72
2023/12/08 07:13:53;;;;;;;40.33;20.83;;;3.50;99.90;;;;;;5079285;28;20031;-72
2023/12/08 07:16:18;;;;;;;40.17;20.58;;;3.50;99.90;;;;;;5074596;28;20110;-72
2023/12/08 07:18:44;;;;;;;42.22;20.83;;;3.50;99.90;;;;;;5079747;28;20111;-71
2023/12/08 07:21:10;;;;;;;40.20;22.17;;;3.50;99.90;;;;;;5081975;28;20414;-71
2023/12/08 07:23:35;;;;;;;46.10;20.88;;;3.50;99.90;;;;;;5079310;28;20094;-71
2023/12/08 07:26:03;;;;;;;41.85;20.13;;;3.50;99.90;;;;;;5068354;28;20025;-71
2023/12/08 07:28:29;;;;;;;44.42;20.02;;;3.50;99.90;;;;;;5066902;28;20114;-71
2023/12/08 07:30:54;;;;;;;43.22;20.25;;;3.50;99.90;;;;;;5071713;28;20070;-71
2023/12/08 07:33:21;;;;;;;43.20;21.23;;;3.50;99.90;;;;;;5067097;28;20486;-71
2023/12/08 07:35:46;;;;;;;40.28;20.33;;;3.50;99.90;;;;;;5067447;28;20029;-71
2023/12/08 07:38:12;;;;;;;40.10;19.23;;;3.60;99.90;;;;;;5067898;28;20039;-71
2023/12/08 07:40:38;;;;;;;44.47;21.90;;;3.60;99.90;;;;;;5067776;28;20028;-71
2023/12/08 07:43:03;;;;;;;50.10;23.48;;;3.60;99.90;;;;;;5067613;28;20048;-71
2023/12/08 07:45:29;;;;;;;47.30;22.33;;;3.60;99.90;;;;;;5066230;28;20021;-71
2023/12/08 07:47:55;;;;;;;49.13;22.35;;;3.60;99.90;;;;;;5067673;28;20391;-71
2023/12/08 07:50:21;;;;;;;50.25;22.88;;;3.60;99.90;;;;;;5080306;28;20089;-71
2023/12/08 07:52:46;;;;;;;52.92;23.08;;;3.60;99.90;;;;;;5072954;28;20039;-71
2023/12/08 07:55:13;;;;;;;48.60;21.30;;;3.60;99.90;;;;;;5072076;28;20033;-71
2023/12/08 07:57:39;;;;;;;50.42;21.42;;;3.60;99.90;;;;;;5081861;28;20400;-72
2023/12/08 08:00:06;;;;;;;52.47;22.92;;;3.60;99.90;;;;;;5077656;28;20867;-71
2023/12/08 08:02:32;;;;;;;51.47;21.65;;;3.60;99.90;;;;;;5073569;28;20027;-72
2023/12/08 08:04:58;;;;;;;60.55;25.05;;;3.60;99.90;;;;;;5083311;28;20508;-71
2023/12/08 08:07:24;;;;;;;58.33;22.13;;;3.60;99.90;;;;;;5074003;28;20025;-72
2023/12/08 08:09:50;;;;;;;56.50;21.05;;;3.60;99.90;;;;;;5081782;28;20078;-71
2023/12/08 08:12:16;;;;;;;56.15;22.38;;;3.70;99.90;;;;;;5079485;28;20428;-70
2023/12/08 08:14:42;;;;;;;57.42;20.88;;;3.70;99.90;;;;;;5074633;28;20034;-71
2023/12/08 08:17:08;;;;;;;65.50;23.88;;;3.70;99.90;;;;;;5078286;28;20024;-71
2023/12/08 08:19:33;;;;;;;60.78;23.50;;;3.70;99.90;;;;;;5081065;28;20127;-71
2023/12/08 08:21:59;;;;;;;68.07;22.88;;;3.70;99.90;;;;;;5075277;28;20016;-71
2023/12/08 08:24:26;;;;;;;68.57;26.65;;;3.80;99.90;;;;;;5073953;28;20199;-71
2023/12/08 08:26:51;;;;;;;52.78;20.70;;;3.80;99.90;;;;;;5081374;28;20019;-72
2023/12/08 08:29:17;;;;;;;64.05;21.67;;;3.80;99.90;;;;;;5071367;28;20104;-71
2023/12/08 08:31:43;;;;;;;65.28;22.52;;;3.80;99.90;;;;;;5067040;28;20016;-71
2023/12/08 08:34:08;;;;;;;66.28;23.52;;;3.90;99.90;;;;;;5076783;28;20047;-71
2023/12/08 08:36:34;;;;;;;68.80;25.88;;;3.90;99.90;;;;;;5074109;28;20851;-71
2023/12/08 08:38:59;;;;;;;67.10;23.38;;;3.90;99.90;;;;;;5066752;28;20040;-71
2023/12/08 08:41:25;;;;;;;58.63;22.67;;;3.90;99.90;;;;;;5063656;28;20041;-71
2023/12/08 08:43:51;;;;;;;77.80;25.60;;;3.90;99.90;;;;;;5072475;28;20026;-71
2023/12/08 08:46:17;;;;;;;74.90;25.80;;;4.00;99.90;;;;;;5083279;28;20107;-71
2023/12/08 08:48:43;;;;;;;72.82;24.60;;;4.00;99.90;;;;;;5072480;28;20032;-71
2023/12/08 08:51:09;;;;;;;80.00;24.13;;;4.00;99.90;;;;;;5066568;28;20094;-71
2023/12/08 08:53:35;;;;;;;79.05;26.90;;;4.00;99.90;;;;;;5066029;28;20509;-71
2023/12/08 08:56:01;;;;;;;82.28;27.40;;;4.00;99.90;;;;;;5070740;28;20110;-71
2023/12/08 08:58:28;;;;;;;76.82;25.63;;;4.10;99.90;;;;;;5074956;28;20036;-69
2023/12/08 09:00:54;;;;;;;73.10;25.35;;;4.10;99.90;;;;;;5066300;28;20025;-71
2023/12/08 09:03:19;;;;;;;71.53;24.80;;;4.10;99.90;;;;;;5072092;28;20421;-71
2023/12/08 09:05:45;;;;;;;79.57;25.50;;;4.10;99.90;;;;;;5045491;28;20025;-71
2023/12/08 09:08:11;;;;;;;73.82;23.02;;;4.10;99.90;;;;;;5055251;28;20016;-71
2023/12/08 09:10:38;;;;;;;69.47;22.13;;;4.20;99.90;;;;;;5066169;28;20505;-71
2023/12/08 09:13:03;;;;;;;83.95;24.58;;;4.10;99.90;;;;;;5065736;28;20017;-71
2023/12/08 09:15:29;;;;;;;81.90;25.70;;;4.20;99.90;;;;;;5066306;28;20103;-71
2023/12/08 09:17:56;;;;;;;74.80;24.40;;;4.20;99.90;;;;;;5075313;28;20017;-71
2023/12/08 09:20:22;;;;;;;79.60;24.85;;;4.20;99.90;;;;;;5065925;28;20020;-70
2023/12/08 09:22:47;;;;;;;73.25;25.30;;;4.20;99.90;;;;;;5065817;28;20016;-71
2023/12/08 09:25:13;;;;;;;84.20;26.58;;;4.20;99.90;;;;;;5066030;28;20841;-71
2023/12/08 09:27:39;;;;;;;74.93;24.77;;;4.30;99.90;;;;;;5065453;28;20052;-71
2023/12/08 09:30:05;;;;;;;80.30;24.60;;;4.30;99.90;;;;;;5066028;28;20466;-71
2023/12/08 09:32:31;;;;;;;75.22;25.00;;;4.30;99.90;;;;;;5065260;28;20025;-71
2023/12/08 09:34:56;;;;;;;73.97;24.48;;;4.30;99.90;;;;;;5069162;28;20039;-71
2023/12/08 09:37:22;;;;;;;80.85;24.13;;;4.40;99.90;;;;;;5064690;28;20032;-71
2023/12/08 09:39:48;;;;;;;74.07;23.48;;;4.40;99.90;;;;;;5065178;28;20036;-71
2023/12/08 09:42:44;;;;;;;68.47;23.48;;;4.40;99.90;;;;;;5047193;28;20095;-72
2023/12/08 09:45:10;;;;;;;75.22;25.13;;;4.40;99.90;;;;;;5031517;28;20045;-71
2023/12/08 09:47:36;;;;;;;92.78;28.38;;;4.40;99.90;;;;;;5045271;28;20025;-72
2023/12/08 09:50:09;;;;;;;101.53;27.88;;;4.50;99.90;;;;;;5045961;28;20037;-71
2023/12/08 09:52:35;;;;;;;93.65;30.15;;;4.50;99.90;;;;;;5044751;28;20818;-72
2023/12/08 09:55:01;;;;;;;117.15;34.17;;;4.50;99.90;;;;;;5046082;28;20067;-71
2023/12/08 09:57:33;;;;;;;104.47;30.98;;;4.50;99.90;;;;;;5045707;28;20028;-70
2023/12/08 10:00:01;;;;;;;116.13;31.27;;;4.50;99.90;;;;;;5046133;28;20052;-72
2023/12/08 10:02:28;;;;;;;142.18;36.00;;;4.60;99.90;;;;;;5045547;28;20017;-71
2023/12/08 10:04:53;;;;;;;153.10;36.17;;;4.60;99.90;;;;;;5045665;28;20112;-72
2023/12/08 10:07:20;;;;;;;158.30;37.92;;;4.60;99.90;;;;;;5043211;28;20116;-71
2023/12/08 10:09:46;;;;;;;169.63;36.38;;;4.70;99.90;;;;;;5045489;28;20017;-71
2023/12/08 10:12:12;;;;;;;165.50;37.42;;;4.70;99.90;;;;;;5045300;28;20484;-72
2023/12/08 10:14:57;;;;;;;154.75;33.53;;;4.70;99.90;;;;;;5045706;28;20039;-72
2023/12/08 10:17:23;;;;;;;149.10;33.38;;;4.70;99.90;;;;;;5037834;28;20024;-71
2023/12/08 10:19:51;;;;;;;188.63;35.05;;;4.70;99.90;;;;;;5045601;28;20390;-72
2023/12/08 10:22:17;;;;;;;167.18;34.25;;;4.70;99.90;;;;;;5045811;28;20045;-72
2023/12/08 10:24:43;;;;;;;186.10;36.25;;;4.80;99.90;;;;;;5045039;28;20020;-72
2023/12/08 10:27:09;;;;;;;189.07;34.55;;;4.80;99.90;;;;;;5045712;28;20025;-72
2023/12/08 10:29:36;;;;;;;152.35;34.75;;;4.80;99.90;;;;;;5045247;28;20096;-71
2023/12/08 10:32:04;;;;;;;165.95;32.72;;;4.80;99.90;;;;;;5045695;28;20025;-71
2023/12/08 10:34:30;;;;;;;198.93;37.75;;;4.90;99.90;;;;;;5045500;28;20103;-71
2023/12/08 10:36:56;;;;;;;193.50;37.00;;;4.90;99.90;;;;;;5045424;28;20152;-71
2023/12/08 10:39:23;;;;;;;225.38;41.88;;;4.90;99.90;;;;;;5027828;28;20497;-72
2023/12/08 10:41:52;;;;;;;221.93;40.70;;;4.90;99.90;;;;;;5041584;28;20131;-72
2023/12/08 10:44:21;;;;;;;256.23;36.83;;;4.90;99.90;;;;;;5068616;28;20878;-73
2023/12/08 10:46:50;;;;;;;189.00;35.83;;;5.00;99.90;;;;;;5067775;28;20028;-72
2023/12/08 10:49:19;;;;;;;232.27;39.22;;;5.00;99.90;;;;;;5068625;28;20017;-71
2023/12/08 10:51:48;;;;;;;259.58;40.30;;;5.00;99.90;;;;;;5069127;28;20032;-72
2023/12/08 10:54:16;;;;;;;254.43;40.80;;;5.00;99.90;;;;;;5068569;28;20482;-72
2023/12/08 10:56:44;;;;;;;246.48;39.05;;;5.00;99.90;;;;;;5067754;28;20024;-72
2023/12/08 10:59:11;;;;;;;245.93;40.58;;;5.10;99.90;;;;;;5068419;28;20113;-72
2023/12/08 11:01:37;;;;;;;246.35;37.45;;;5.10;99.90;;;;;;5068792;28;20021;-72
2023/12/08 11:04:10;;;;;;;265.83;39.42;;;5.10;99.90;;;;;;5068364;28;20258;-71
2023/12/08 11:06:46;;;;;;;266.45;37.15;;;5.20;99.90;;;;;;5067522;28;20031;-72
2023/12/08 11:09:15;;;;;;;254.95;39.35;;;5.20;99.90;;;;;;5068058;28;20024;-72
2023/12/08 11:11:49;;;;;;;235.68;37.78;;;5.20;99.90;;;;;;5068767;28;20051;-72
2023/12/08 11:14:47;;;;;;;277.25;41.60;;;5.30;99.90;;;;;;5068284;28;20023;-73
2023/12/08 11:17:54;;;;;;;293.60;41.35;;;5.30;99.90;;;;;;5059193;28;20048;-72
2023/12/08 11:20:21;;;;;;;292.85;45.05;;;5.30;99.90;;;;;;5067655;28;20032;-72
2023/12/08 11:22:47;;;;;;;286.75;45.33;;;5.40;99.90;;;;;;5067825;28;20111;-72
2023/12/08 11:25:21;;;;;;;316.02;42.90;;;5.40;99.90;;;;;;5068337;28;20457;-72
2023/12/08 11:28:11;;;;;;;273.73;41.28;;;5.40;99.90;;;;;;5066541;28;20029;-72
2023/12/08 11:31:16;;;;;;;316.17;46.35;;;5.40;99.90;;;;;;5067668;28;20094;-72
2023/12/08 11:33:58;;;;;;;311.98;45.40;;;5.50;99.90;;;;;;5017868;28;20036;-72
2023/12/08 11:36:28;;;;;;;308.70;48.10;;;5.50;99.90;;;;;;5068161;28;20028;-72
2023/12/08 11:38:55;;;;;;;333.98;44.85;;;5.60;99.90;;;;;;5067539;28;20108;-72
2023/12/08 11:41:22;;;;;;;290.40;45.83;;;5.60;99.90;;;;;;5067960;28;20094;-72
2023/12/08 11:43:48;;;;;;;333.20;48.35;;;5.60;99.90;;;;;;5048426;28;20032;-72
2023/12/08 11:46:15;;;;;;;318.05;45.00;;;5.70;99.90;;;;;;5067366;28;20020;-72
2023/12/08 11:48:41;;;;;;;382.17;44.90;;;5.70;99.90;;;;;;5067323;28;20044;-73
2023/12/08 11:51:10;;;;;;;335.23;49.42;;;5.70;99.90;;;;;;5068018;28;20421;-72
2023/12/08 11:53:55;;;;;;;339.27;48.53;;;5.80;99.90;;;;;;5066276;28;20078;-72
2023/12/08 11:56:41;;;;;;;348.35;46.58;;;5.80;99.90;;;;;;5054412;28;20111;-72
2023/12/08 11:59:07;;;;;;;415.17;48.17;;;5.90;99.90;;;;;;5067333;28;20037;-72
2023/12/08 12:01:37;;;;;;;309.48;42.53;;;5.90;99.90;;;;;;5067676;28;20515;-72
2023/12/08 12:04:02;;;;;;;378.23;43.92;;;5.90;99.90;;;;;;5067444;28;20016;-72
2023/12/08 12:06:30;;;;;;;335.55;44.40;;;6.00;99.90;;;;;;5067973;28;20083;-72
2023/12/08 12:08:59;;;;;;;378.02;45.92;;;6.00;99.90;;;;;;5065904;28;20024;-72
2023/12/08 12:11:29;;;;;;;383.17;49.70;;;6.10;99.90;;;;;;5067686;28;20031;-72
2023/12/08 12:13:59;;;;;;;396.95;47.90;;;6.10;99.90;;;;;;5063886;28;20029;-72
2023/12/08 12:16:25;;;;;;;348.23;49.95;;;6.20;99.90;;;;;;5067376;28;20020;-72
2023/12/08 12:18:51;;;;;;;402.10;53.75;;;6.20;99.90;;;;;;5062084;28;20028;-72
2023/12/08 12:21:19;;;;;;;368.23;48.70;;;6.20;99.90;;;;;;5060646;28;20033;-73
2023/12/08 12:23:46;;;;;;;364.27;50.28;;;6.20;99.90;;;;;;5048499;28;20039;-72
2023/12/08 12:26:13;;;;;;;372.20;48.05;;;6.30;99.90;;;;;;5066920;28;20044;-72
2023/12/08 12:28:39;;;;;;;333.27;46.50;;;6.30;99.90;;;;;;5062449;28;20028;-72
2023/12/08 12:31:04;;;;;;;364.38;48.65;;;6.40;99.90;;;;;;5066613;28;20446;-72
2023/12/08 12:33:30;;;;;;;346.23;46.80;;;6.40;99.90;;;;;;5066786;28;20032;-71